sensor_id;sensor_type;location;lat;lon;timestamp;P1;durP1;ratioP1;P2;durP2;ratioP2
10904;SDS011;5505;51.450;9.254;2022-12-18T00:01:59;24.80;;;13.03;;
10904;SDS011;5505;51.450;9.254;2022-12-18T00:04:50;23.93;;;13.60;;
10904;SDS011;5505;51.450;9.254;2022-12-18T00:07:36;25.47;;;13.23;;
10904;SDS011;5505;51.450;9.254;2022-12-18T00:10:23;23.73;;;13.33;;
10904;SDS011;5505;51.450;9.254;2022-12-18T00:13:10;23.83;;;12.47;;
10904;SDS011;5505;51.450;9.254;2022-12-18T00:16:00;15.53;;;8.73;;
10904;SDS011;5505;51.450;9.254;2022-12-18T00:18:47;26.00;;;13.73;;
10904;SDS011;5505;51.450;9.254;2022-12-18T00:21:36;27.03;;;13.10;;
10904;SDS011;5505;51.450;9.254;2022-12-18T00:24:26;14.50;;;9.17;;
10904;SDS011;5505;51.450;9.254;2022-12-18T00:27:13;30.80;;;13.70;;
10904;SDS011;5505;51.450;9.254;2022-12-18T00:29:59;28.30;;;14.10;;
10904;SDS011;5505;51.450;9.254;2022-12-18T00:32:47;23.93;;;13.23;;
10904;SDS011;5505;51.450;9.254;2022-12-18T00:35:33;28.07;;;13.80;;
10904;SDS011;5505;51.450;9.254;2022-12-18T00:38:22;29.87;;;13.57;;
10904;SDS011;5505;51.450;9.254;2022-12-18T00:41:09;31.17;;;14.17;;
10904;SDS011;5505;51.450;9.254;2022-12-18T00:43:58;25.30;;;13.20;;
10904;SDS011;5505;51.450;9.254;2022-12-18T00:46:44;24.77;;;14.37;;
10904;SDS011;5505;51.450;9.254;2022-12-18T00:49:32;28.63;;;14.33;;
10904;SDS011;5505;51.450;9.254;2022-12-18T00:52:18;26.10;;;13.30;;
10904;SDS011;5505;51.450;9.254;2022-12-18T00:55:07;27.70;;;15.17;;
10904;SDS011;5505;51.450;9.254;2022-12-18T00:57:54;25.33;;;14.10;;
10904;SDS011;5505;51.450;9.254;2022-12-18T01:00:41;28.73;;;13.00;;
10904;SDS011;5505;51.450;9.254;2022-12-18T01:03:28;29.60;;;14.33;;
10904;SDS011;5505;51.450;9.254;2022-12-18T01:06:15;32.77;;;14.47;;
10904;SDS011;5505;51.450;9.254;2022-12-18T01:09:03;36.10;;;15.13;;
10904;SDS011;5505;51.450;9.254;2022-12-18T01:11:51;29.00;;;14.87;;
10904;SDS011;5505;51.450;9.254;2022-12-18T01:14:38;27.17;;;13.53;;
10904;SDS011;5505;51.450;9.254;2022-12-18T01:17:24;28.97;;;14.37;;
10904;SDS011;5505;51.450;9.254;2022-12-18T01:20:12;28.43;;;15.63;;
10904;SDS011;5505;51.450;9.254;2022-12-18T01:22:59;32.47;;;15.63;;
10904;SDS011;5505;51.450;9.254;2022-12-18T01:25:46;35.77;;;15.77;;
10904;SDS011;5505;51.450;9.254;2022-12-18T01:28:34;26.43;;;13.40;;
10904;SDS011;5505;51.450;9.254;2022-12-18T01:31:21;29.97;;;15.33;;
10904;SDS011;5505;51.450;9.254;2022-12-18T01:34:09;28.83;;;15.03;;
10904;SDS011;5505;51.450;9.254;2022-12-18T01:36:56;41.97;;;19.60;;
10904;SDS011;5505;51.450;9.254;2022-12-18T01:39:43;30.07;;;14.23;;
10904;SDS011;5505;51.450;9.254;2022-12-18T01:42:30;23.27;;;12.83;;
10904;SDS011;5505;51.450;9.254;2022-12-18T01:45:28;25.97;;;13.77;;
10904;SDS011;5505;51.450;9.254;2022-12-18T01:48:15;29.43;;;14.87;;
10904;SDS011;5505;51.450;9.254;2022-12-18T01:51:02;29.13;;;14.60;;
10904;SDS011;5505;51.450;9.254;2022-12-18T01:53:50;25.83;;;13.30;;
10904;SDS011;5505;51.450;9.254;2022-12-18T01:56:37;28.13;;;13.57;;
10904;SDS011;5505;51.450;9.254;2022-12-18T01:59:23;25.83;;;12.93;;
10904;SDS011;5505;51.450;9.254;2022-12-18T02:02:12;25.73;;;12.27;;
10904;SDS011;5505;51.450;9.254;2022-12-18T02:04:59;26.93;;;13.57;;
10904;SDS011;5505;51.450;9.254;2022-12-18T02:07:49;27.40;;;14.37;;
10904;SDS011;5505;51.450;9.254;2022-12-18T02:10:46;21.60;;;11.83;;
10904;SDS011;5505;51.450;9.254;2022-12-18T02:13:41;25.10;;;11.53;;
10904;SDS011;5505;51.450;9.254;2022-12-18T02:16:34;20.47;;;10.40;;
10904;SDS011;5505;51.450;9.254;2022-12-18T02:19:37;21.70;;;11.43;;
10904;SDS011;5505;51.450;9.254;2022-12-18T02:22:34;26.13;;;13.30;;
10904;SDS011;5505;51.450;9.254;2022-12-18T02:25:39;22.77;;;11.30;;
10904;SDS011;5505;51.450;9.254;2022-12-18T02:28:41;20.63;;;10.57;;
10904;SDS011;5505;51.450;9.254;2022-12-18T02:31:35;19.77;;;9.20;;
10904;SDS011;5505;51.450;9.254;2022-12-18T02:34:26;13.93;;;8.80;;
10904;SDS011;5505;51.450;9.254;2022-12-18T02:37:17;17.83;;;9.47;;
10904;SDS011;5505;51.450;9.254;2022-12-18T02:40:06;18.60;;;11.00;;
10904;SDS011;5505;51.450;9.254;2022-12-18T02:42:56;12.67;;;6.67;;
10904;SDS011;5505;51.450;9.254;2022-12-18T02:45:50;22.27;;;11.67;;
10904;SDS011;5505;51.450;9.254;2022-12-18T02:48:38;23.27;;;11.87;;
10904;SDS011;5505;51.450;9.254;2022-12-18T02:51:27;23.17;;;11.87;;
10904;SDS011;5505;51.450;9.254;2022-12-18T02:54:21;24.30;;;12.90;;
10904;SDS011;5505;51.450;9.254;2022-12-18T02:57:18;19.83;;;10.93;;
10904;SDS011;5505;51.450;9.254;2022-12-18T03:00:12;24.03;;;12.50;;
10904;SDS011;5505;51.450;9.254;2022-12-18T03:03:03;25.53;;;10.63;;
10904;SDS011;5505;51.450;9.254;2022-12-18T03:05:55;23.23;;;12.67;;
10904;SDS011;5505;51.450;9.254;2022-12-18T03:08:47;22.37;;;12.30;;
10904;SDS011;5505;51.450;9.254;2022-12-18T03:11:37;23.30;;;13.13;;
10904;SDS011;5505;51.450;9.254;2022-12-18T03:14:46;25.90;;;12.33;;
10904;SDS011;5505;51.450;9.254;2022-12-18T03:17:37;25.33;;;13.13;;
10904;SDS011;5505;51.450;9.254;2022-12-18T03:20:28;22.03;;;11.17;;
10904;SDS011;5505;51.450;9.254;2022-12-18T03:23:18;26.30;;;12.10;;
10904;SDS011;5505;51.450;9.254;2022-12-18T03:26:07;22.90;;;12.30;;
10904;SDS011;5505;51.450;9.254;2022-12-18T03:28:59;26.27;;;15.17;;
10904;SDS011;5505;51.450;9.254;2022-12-18T03:31:51;33.27;;;18.83;;
10904;SDS011;5505;51.450;9.254;2022-12-18T03:34:43;28.37;;;12.47;;
10904;SDS011;5505;51.450;9.254;2022-12-18T03:37:34;24.43;;;13.90;;
10904;SDS011;5505;51.450;9.254;2022-12-18T03:40:21;21.90;;;11.67;;
10904;SDS011;5505;51.450;9.254;2022-12-18T03:43:16;25.60;;;14.13;;
10904;SDS011;5505;51.450;9.254;2022-12-18T03:46:11;25.53;;;10.47;;
10904;SDS011;5505;51.450;9.254;2022-12-18T03:49:05;26.50;;;14.97;;
10904;SDS011;5505;51.450;9.254;2022-12-18T03:52:01;20.53;;;9.70;;
10904;SDS011;5505;51.450;9.254;2022-12-18T03:54:50;21.53;;;11.43;;
10904;SDS011;5505;51.450;9.254;2022-12-18T03:57:38;22.90;;;13.30;;
10904;SDS011;5505;51.450;9.254;2022-12-18T04:00:27;29.37;;;12.47;;
10904;SDS011;5505;51.450;9.254;2022-12-18T04:03:15;30.17;;;14.17;;
10904;SDS011;5505;51.450;9.254;2022-12-18T04:06:04;27.17;;;12.40;;
10904;SDS011;5505;51.450;9.254;2022-12-18T04:08:53;23.13;;;12.03;;
10904;SDS011;5505;51.450;9.254;2022-12-18T04:11:40;20.20;;;11.97;;
10904;SDS011;5505;51.450;9.254;2022-12-18T04:14:28;22.50;;;12.13;;
10904;SDS011;5505;51.450;9.254;2022-12-18T04:17:15;24.90;;;12.83;;
10904;SDS011;5505;51.450;9.254;2022-12-18T04:20:02;18.20;;;10.57;;
10904;SDS011;5505;51.450;9.254;2022-12-18T04:22:49;20.60;;;11.20;;
10904;SDS011;5505;51.450;9.254;2022-12-18T04:25:37;20.33;;;11.10;;
10904;SDS011;5505;51.450;9.254;2022-12-18T04:28:24;22.53;;;11.83;;
10904;SDS011;5505;51.450;9.254;2022-12-18T04:31:11;22.87;;;11.03;;
10904;SDS011;5505;51.450;9.254;2022-12-18T04:33:57;20.87;;;10.50;;
10904;SDS011;5505;51.450;9.254;2022-12-18T04:36:44;20.77;;;11.60;;
10904;SDS011;5505;51.450;9.254;2022-12-18T04:39:31;23.87;;;11.20;;
10904;SDS011;5505;51.450;9.254;2022-12-18T04:42:19;22.27;;;11.73;;
10904;SDS011;5505;51.450;9.254;2022-12-18T04:45:07;19.87;;;10.30;;
10904;SDS011;5505;51.450;9.254;2022-12-18T04:47:54;20.33;;;9.83;;
10904;SDS011;5505;51.450;9.254;2022-12-18T04:50:42;20.83;;;10.93;;
10904;SDS011;5505;51.450;9.254;2022-12-18T04:53:29;21.47;;;11.03;;
10904;SDS011;5505;51.450;9.254;2022-12-18T04:56:16;19.43;;;9.97;;
10904;SDS011;5505;51.450;9.254;2022-12-18T04:59:04;23.77;;;12.53;;
10904;SDS011;5505;51.450;9.254;2022-12-18T05:01:51;22.87;;;10.93;;
10904;SDS011;5505;51.450;9.254;2022-12-18T05:04:38;23.90;;;11.63;;
10904;SDS011;5505;51.450;9.254;2022-12-18T05:07:25;24.83;;;12.83;;
10904;SDS011;5505;51.450;9.254;2022-12-18T05:10:12;25.03;;;12.77;;
10904;SDS011;5505;51.450;9.254;2022-12-18T05:12:58;18.80;;;10.63;;
10904;SDS011;5505;51.450;9.254;2022-12-18T05:15:52;25.07;;;11.73;;
10904;SDS011;5505;51.450;9.254;2022-12-18T05:18:40;27.53;;;12.73;;
10904;SDS011;5505;51.450;9.254;2022-12-18T05:21:27;23.93;;;12.50;;
10904;SDS011;5505;51.450;9.254;2022-12-18T05:24:14;34.03;;;15.57;;
10904;SDS011;5505;51.450;9.254;2022-12-18T05:27:00;37.13;;;15.90;;
10904;SDS011;5505;51.450;9.254;2022-12-18T05:29:47;38.77;;;15.57;;
10904;SDS011;5505;51.450;9.254;2022-12-18T05:32:35;35.33;;;15.90;;
10904;SDS011;5505;51.450;9.254;2022-12-18T05:35:22;30.37;;;13.67;;
10904;SDS011;5505;51.450;9.254;2022-12-18T05:38:09;30.37;;;14.03;;
10904;SDS011;5505;51.450;9.254;2022-12-18T05:40:56;23.47;;;11.73;;
10904;SDS011;5505;51.450;9.254;2022-12-18T05:43:43;13.87;;;7.73;;
10904;SDS011;5505;51.450;9.254;2022-12-18T05:46:30;21.73;;;9.47;;
10904;SDS011;5505;51.450;9.254;2022-12-18T05:49:18;28.23;;;12.03;;
10904;SDS011;5505;51.450;9.254;2022-12-18T05:52:05;28.63;;;13.43;;
10904;SDS011;5505;51.450;9.254;2022-12-18T05:54:52;33.13;;;16.03;;
10904;SDS011;5505;51.450;9.254;2022-12-18T05:57:38;26.03;;;12.03;;
10904;SDS011;5505;51.450;9.254;2022-12-18T06:00:25;20.80;;;9.47;;
10904;SDS011;5505;51.450;9.254;2022-12-18T06:03:12;26.63;;;13.07;;
10904;SDS011;5505;51.450;9.254;2022-12-18T06:06:01;23.97;;;12.10;;
10904;SDS011;5505;51.450;9.254;2022-12-18T06:08:48;23.63;;;11.07;;
10904;SDS011;5505;51.450;9.254;2022-12-18T06:11:36;27.77;;;13.90;;
10904;SDS011;5505;51.450;9.254;2022-12-18T06:14:24;23.17;;;11.63;;
10904;SDS011;5505;51.450;9.254;2022-12-18T06:17:10;21.33;;;10.27;;
10904;SDS011;5505;51.450;9.254;2022-12-18T06:19:57;26.33;;;11.40;;
10904;SDS011;5505;51.450;9.254;2022-12-18T06:22:46;17.63;;;9.43;;
10904;SDS011;5505;51.450;9.254;2022-12-18T06:25:32;32.57;;;17.70;;
10904;SDS011;5505;51.450;9.254;2022-12-18T06:28:20;24.13;;;12.40;;
10904;SDS011;5505;51.450;9.254;2022-12-18T06:31:07;25.37;;;13.13;;
10904;SDS011;5505;51.450;9.254;2022-12-18T06:33:54;26.23;;;13.50;;
10904;SDS011;5505;51.450;9.254;2022-12-18T06:36:40;26.33;;;12.90;;
10904;SDS011;5505;51.450;9.254;2022-12-18T06:39:29;24.07;;;11.43;;
10904;SDS011;5505;51.450;9.254;2022-12-18T06:42:16;32.93;;;17.40;;
10904;SDS011;5505;51.450;9.254;2022-12-18T06:45:03;23.67;;;12.83;;
10904;SDS011;5505;51.450;9.254;2022-12-18T06:47:50;25.90;;;12.53;;
10904;SDS011;5505;51.450;9.254;2022-12-18T06:50:37;24.73;;;12.90;;
10904;SDS011;5505;51.450;9.254;2022-12-18T06:53:28;29.93;;;15.40;;
10904;SDS011;5505;51.450;9.254;2022-12-18T06:56:16;24.50;;;13.80;;
10904;SDS011;5505;51.450;9.254;2022-12-18T06:59:03;24.37;;;11.67;;
10904;SDS011;5505;51.450;9.254;2022-12-18T07:01:50;22.67;;;11.33;;
10904;SDS011;5505;51.450;9.254;2022-12-18T07:04:37;22.83;;;11.27;;
10904;SDS011;5505;51.450;9.254;2022-12-18T07:07:24;24.27;;;11.43;;
10904;SDS011;5505;51.450;9.254;2022-12-18T07:10:11;21.97;;;10.67;;
10904;SDS011;5505;51.450;9.254;2022-12-18T07:12:59;22.77;;;13.50;;
10904;SDS011;5505;51.450;9.254;2022-12-18T07:15:46;25.53;;;12.83;;
10904;SDS011;5505;51.450;9.254;2022-12-18T07:18:32;21.43;;;11.20;;
10904;SDS011;5505;51.450;9.254;2022-12-18T07:21:19;24.10;;;12.90;;
10904;SDS011;5505;51.450;9.254;2022-12-18T07:24:06;19.67;;;9.73;;
10904;SDS011;5505;51.450;9.254;2022-12-18T07:26:53;21.87;;;10.47;;
10904;SDS011;5505;51.450;9.254;2022-12-18T07:29:41;20.27;;;10.70;;
10904;SDS011;5505;51.450;9.254;2022-12-18T07:32:29;23.70;;;12.07;;
10904;SDS011;5505;51.450;9.254;2022-12-18T07:35:16;19.80;;;10.50;;
10904;SDS011;5505;51.450;9.254;2022-12-18T07:38:03;33.30;;;18.27;;
10904;SDS011;5505;51.450;9.254;2022-12-18T07:40:51;29.90;;;16.13;;
10904;SDS011;5505;51.450;9.254;2022-12-18T07:43:38;28.53;;;14.20;;
10904;SDS011;5505;51.450;9.254;2022-12-18T07:46:27;18.93;;;10.10;;
10904;SDS011;5505;51.450;9.254;2022-12-18T07:49:13;24.40;;;11.00;;
10904;SDS011;5505;51.450;9.254;2022-12-18T07:52:00;20.63;;;10.00;;
10904;SDS011;5505;51.450;9.254;2022-12-18T07:54:47;18.63;;;9.47;;
10904;SDS011;5505;51.450;9.254;2022-12-18T07:57:35;25.77;;;12.53;;
10904;SDS011;5505;51.450;9.254;2022-12-18T08:00:21;23.50;;;12.00;;
10904;SDS011;5505;51.450;9.254;2022-12-18T08:03:16;21.17;;;12.30;;
10904;SDS011;5505;51.450;9.254;2022-12-18T08:06:03;24.87;;;12.80;;
10904;SDS011;5505;51.450;9.254;2022-12-18T08:08:52;27.80;;;15.57;;
10904;SDS011;5505;51.450;9.254;2022-12-18T08:11:39;23.40;;;12.90;;
10904;SDS011;5505;51.450;9.254;2022-12-18T08:14:26;27.40;;;14.37;;
10904;SDS011;5505;51.450;9.254;2022-12-18T08:17:13;22.00;;;12.17;;
10904;SDS011;5505;51.450;9.254;2022-12-18T08:20:01;15.63;;;8.43;;
10904;SDS011;5505;51.450;9.254;2022-12-18T08:22:48;27.30;;;15.17;;
10904;SDS011;5505;51.450;9.254;2022-12-18T08:25:35;16.97;;;8.27;;
10904;SDS011;5505;51.450;9.254;2022-12-18T08:28:21;20.50;;;11.23;;
10904;SDS011;5505;51.450;9.254;2022-12-18T08:31:08;31.43;;;16.20;;
10904;SDS011;5505;51.450;9.254;2022-12-18T08:33:56;25.13;;;13.87;;
10904;SDS011;5505;51.450;9.254;2022-12-18T08:36:44;18.17;;;9.03;;
10904;SDS011;5505;51.450;9.254;2022-12-18T08:39:31;23.83;;;11.43;;
10904;SDS011;5505;51.450;9.254;2022-12-18T08:42:19;27.57;;;13.03;;
10904;SDS011;5505;51.450;9.254;2022-12-18T08:45:22;15.67;;;8.27;;
10904;SDS011;5505;51.450;9.254;2022-12-18T08:48:11;9.13;;;4.73;;
10904;SDS011;5505;51.450;9.254;2022-12-18T08:50:58;11.93;;;6.93;;
10904;SDS011;5505;51.450;9.254;2022-12-18T08:53:47;15.57;;;7.93;;
10904;SDS011;5505;51.450;9.254;2022-12-18T08:56:34;23.30;;;15.10;;
10904;SDS011;5505;51.450;9.254;2022-12-18T08:59:20;21.43;;;10.03;;
10904;SDS011;5505;51.450;9.254;2022-12-18T09:02:09;15.70;;;8.77;;
10904;SDS011;5505;51.450;9.254;2022-12-18T09:04:56;19.80;;;11.57;;
10904;SDS011;5505;51.450;9.254;2022-12-18T09:07:43;24.77;;;14.30;;
10904;SDS011;5505;51.450;9.254;2022-12-18T09:10:31;9.07;;;5.37;;
10904;SDS011;5505;51.450;9.254;2022-12-18T09:13:18;26.30;;;10.97;;
10904;SDS011;5505;51.450;9.254;2022-12-18T09:16:05;14.03;;;9.33;;
10904;SDS011;5505;51.450;9.254;2022-12-18T09:18:52;21.67;;;10.43;;
10904;SDS011;5505;51.450;9.254;2022-12-18T09:21:44;17.80;;;10.80;;
10904;SDS011;5505;51.450;9.254;2022-12-18T09:24:34;20.20;;;11.47;;
10904;SDS011;5505;51.450;9.254;2022-12-18T09:27:22;25.43;;;13.47;;
10904;SDS011;5505;51.450;9.254;2022-12-18T09:30:09;18.53;;;10.97;;
10904;SDS011;5505;51.450;9.254;2022-12-18T09:32:56;23.00;;;12.37;;
10904;SDS011;5505;51.450;9.254;2022-12-18T09:35:44;18.83;;;10.03;;
10904;SDS011;5505;51.450;9.254;2022-12-18T09:38:31;21.33;;;11.87;;
10904;SDS011;5505;51.450;9.254;2022-12-18T09:41:24;25.47;;;15.33;;
10904;SDS011;5505;51.450;9.254;2022-12-18T09:44:32;16.30;;;9.63;;
10904;SDS011;5505;51.450;9.254;2022-12-18T09:47:23;10.50;;;6.50;;
10904;SDS011;5505;51.450;9.254;2022-12-18T09:50:16;23.07;;;11.40;;
10904;SDS011;5505;51.450;9.254;2022-12-18T09:53:11;21.53;;;12.53;;
10904;SDS011;5505;51.450;9.254;2022-12-18T09:56:01;22.80;;;12.07;;
10904;SDS011;5505;51.450;9.254;2022-12-18T09:58:52;24.30;;;15.30;;
10904;SDS011;5505;51.450;9.254;2022-12-18T10:01:45;20.00;;;12.60;;
10904;SDS011;5505;51.450;9.254;2022-12-18T10:04:32;20.83;;;11.80;;
10904;SDS011;5505;51.450;9.254;2022-12-18T10:07:19;24.03;;;14.57;;
10904;SDS011;5505;51.450;9.254;2022-12-18T10:10:14;22.83;;;14.60;;
10904;SDS011;5505;51.450;9.254;2022-12-18T10:13:15;26.53;;;13.90;;
10904;SDS011;5505;51.450;9.254;2022-12-18T10:16:12;19.87;;;10.47;;
10904;SDS011;5505;51.450;9.254;2022-12-18T10:19:11;20.43;;;11.33;;
10904;SDS011;5505;51.450;9.254;2022-12-18T10:22:11;20.17;;;12.07;;
10904;SDS011;5505;51.450;9.254;2022-12-18T10:25:05;18.30;;;11.37;;
10904;SDS011;5505;51.450;9.254;2022-12-18T10:28:07;19.23;;;10.73;;
10904;SDS011;5505;51.450;9.254;2022-12-18T10:30:56;17.33;;;10.73;;
10904;SDS011;5505;51.450;9.254;2022-12-18T10:33:44;16.53;;;10.77;;
10904;SDS011;5505;51.450;9.254;2022-12-18T10:36:32;16.83;;;9.97;;
10904;SDS011;5505;51.450;9.254;2022-12-18T10:39:20;13.20;;;8.57;;
10904;SDS011;5505;51.450;9.254;2022-12-18T10:42:09;16.07;;;8.93;;
10904;SDS011;5505;51.450;9.254;2022-12-18T10:45:01;17.73;;;9.87;;
10904;SDS011;5505;51.450;9.254;2022-12-18T10:47:50;18.63;;;12.97;;
10904;SDS011;5505;51.450;9.254;2022-12-18T10:50:36;19.40;;;10.33;;
10904;SDS011;5505;51.450;9.254;2022-12-18T10:53:25;24.33;;;11.80;;
10904;SDS011;5505;51.450;9.254;2022-12-18T10:56:13;22.20;;;14.70;;
10904;SDS011;5505;51.450;9.254;2022-12-18T10:59:07;21.60;;;11.43;;
10904;SDS011;5505;51.450;9.254;2022-12-18T11:01:56;22.87;;;10.47;;
10904;SDS011;5505;51.450;9.254;2022-12-18T11:04:51;21.77;;;12.03;;
10904;SDS011;5505;51.450;9.254;2022-12-18T11:07:47;17.20;;;10.37;;
10904;SDS011;5505;51.450;9.254;2022-12-18T11:10:37;18.77;;;13.40;;
10904;SDS011;5505;51.450;9.254;2022-12-18T11:13:26;20.07;;;12.97;;
10904;SDS011;5505;51.450;9.254;2022-12-18T11:16:18;21.57;;;12.63;;
10904;SDS011;5505;51.450;9.254;2022-12-18T11:19:13;20.47;;;13.10;;
10904;SDS011;5505;51.450;9.254;2022-12-18T11:22:17;18.00;;;11.87;;
10904;SDS011;5505;51.450;9.254;2022-12-18T11:25:06;22.03;;;12.17;;
10904;SDS011;5505;51.450;9.254;2022-12-18T11:28:24;24.40;;;14.50;;
10904;SDS011;5505;51.450;9.254;2022-12-18T11:31:23;21.83;;;12.87;;
10904;SDS011;5505;51.450;9.254;2022-12-18T11:34:13;13.97;;;8.37;;
10904;SDS011;5505;51.450;9.254;2022-12-18T11:37:03;22.43;;;12.70;;
10904;SDS011;5505;51.450;9.254;2022-12-18T11:39:52;25.93;;;13.20;;
10904;SDS011;5505;51.450;9.254;2022-12-18T11:42:44;20.97;;;13.67;;
10904;SDS011;5505;51.450;9.254;2022-12-18T11:45:38;24.13;;;13.07;;
10904;SDS011;5505;51.450;9.254;2022-12-18T11:48:30;21.03;;;13.30;;
10904;SDS011;5505;51.450;9.254;2022-12-18T11:51:21;13.40;;;8.17;;
10904;SDS011;5505;51.450;9.254;2022-12-18T11:54:13;21.47;;;12.33;;
10904;SDS011;5505;51.450;9.254;2022-12-18T11:57:02;19.43;;;12.80;;
10904;SDS011;5505;51.450;9.254;2022-12-18T11:59:56;17.80;;;10.63;;
10904;SDS011;5505;51.450;9.254;2022-12-18T12:02:59;17.47;;;11.13;;
10904;SDS011;5505;51.450;9.254;2022-12-18T12:06:04;17.23;;;11.90;;
10904;SDS011;5505;51.450;9.254;2022-12-18T12:09:02;17.33;;;10.10;;
10904;SDS011;5505;51.450;9.254;2022-12-18T12:12:02;15.10;;;10.40;;
10904;SDS011;5505;51.450;9.254;2022-12-18T12:15:04;16.33;;;10.63;;
10904;SDS011;5505;51.450;9.254;2022-12-18T12:18:08;16.07;;;9.83;;
10904;SDS011;5505;51.450;9.254;2022-12-18T12:21:06;14.50;;;9.87;;
10904;SDS011;5505;51.450;9.254;2022-12-18T12:24:03;14.27;;;8.53;;
10904;SDS011;5505;51.450;9.254;2022-12-18T12:27:05;14.93;;;9.40;;
10904;SDS011;5505;51.450;9.254;2022-12-18T12:30:01;12.30;;;8.53;;
10904;SDS011;5505;51.450;9.254;2022-12-18T12:32:58;15.27;;;9.50;;
10904;SDS011;5505;51.450;9.254;2022-12-18T12:35:58;14.03;;;9.97;;
10904;SDS011;5505;51.450;9.254;2022-12-18T12:38:53;14.73;;;9.63;;
10904;SDS011;5505;51.450;9.254;2022-12-18T12:41:42;14.57;;;10.30;;
10904;SDS011;5505;51.450;9.254;2022-12-18T12:44:51;15.20;;;9.30;;
10904;SDS011;5505;51.450;9.254;2022-12-18T12:47:40;13.20;;;9.30;;
10904;SDS011;5505;51.450;9.254;2022-12-18T12:50:29;12.47;;;7.67;;
10904;SDS011;5505;51.450;9.254;2022-12-18T12:53:23;12.30;;;8.40;;
10904;SDS011;5505;51.450;9.254;2022-12-18T12:56:15;11.80;;;8.10;;
10904;SDS011;5505;51.450;9.254;2022-12-18T12:59:08;12.73;;;6.07;;
10904;SDS011;5505;51.450;9.254;2022-12-18T13:02:01;8.87;;;5.83;;
10904;SDS011;5505;51.450;9.254;2022-12-18T13:04:56;10.60;;;6.30;;
10904;SDS011;5505;51.450;9.254;2022-12-18T13:07:49;9.33;;;6.13;;
10904;SDS011;5505;51.450;9.254;2022-12-18T13:10:41;11.13;;;6.47;;
10904;SDS011;5505;51.450;9.254;2022-12-18T13:13:28;11.47;;;6.37;;
10904;SDS011;5505;51.450;9.254;2022-12-18T13:16:34;11.00;;;6.50;;
10904;SDS011;5505;51.450;9.254;2022-12-18T13:19:21;11.77;;;6.90;;
10904;SDS011;5505;51.450;9.254;2022-12-18T13:22:20;10.37;;;6.87;;
10904;SDS011;5505;51.450;9.254;2022-12-18T13:28:21;10.47;;;6.80;;
10904;SDS011;5505;51.450;9.254;2022-12-18T13:38:32;10.23;;;6.97;;
10904;SDS011;5505;51.450;9.254;2022-12-18T13:41:24;9.87;;;6.40;;
10904;SDS011;5505;51.450;9.254;2022-12-18T13:44:20;11.50;;;7.97;;
10904;SDS011;5505;51.450;9.254;2022-12-18T13:47:25;9.77;;;6.57;;
10904;SDS011;5505;51.450;9.254;2022-12-18T13:50:20;9.93;;;6.10;;
10904;SDS011;5505;51.450;9.254;2022-12-18T13:53:13;11.90;;;7.63;;
10904;SDS011;5505;51.450;9.254;2022-12-18T13:56:08;14.53;;;8.23;;
10904;SDS011;5505;51.450;9.254;2022-12-18T14:02:20;13.67;;;7.97;;
10904;SDS011;5505;51.450;9.254;2022-12-18T14:05:20;13.27;;;8.27;;
10904;SDS011;5505;51.450;9.254;2022-12-18T14:08:08;12.90;;;7.80;;
10904;SDS011;5505;51.450;9.254;2022-12-18T14:10:58;12.37;;;7.77;;
10904;SDS011;5505;51.450;9.254;2022-12-18T14:13:46;12.77;;;8.07;;
10904;SDS011;5505;51.450;9.254;2022-12-18T14:16:34;13.80;;;9.43;;
10904;SDS011;5505;51.450;9.254;2022-12-18T14:19:22;12.90;;;8.80;;
10904;SDS011;5505;51.450;9.254;2022-12-18T14:22:17;13.20;;;9.87;;
10904;SDS011;5505;51.450;9.254;2022-12-18T14:25:17;12.63;;;8.87;;
10904;SDS011;5505;51.450;9.254;2022-12-18T14:28:08;11.33;;;8.47;;
10904;SDS011;5505;51.450;9.254;2022-12-18T14:31:01;13.00;;;8.90;;
10904;SDS011;5505;51.450;9.254;2022-12-18T14:33:49;11.27;;;7.57;;
10904;SDS011;5505;51.450;9.254;2022-12-18T14:36:36;11.47;;;8.27;;
10904;SDS011;5505;51.450;9.254;2022-12-18T14:39:24;11.50;;;8.37;;
10904;SDS011;5505;51.450;9.254;2022-12-18T14:42:11;13.30;;;7.60;;
10904;SDS011;5505;51.450;9.254;2022-12-18T14:48:21;9.60;;;7.40;;
10904;SDS011;5505;51.450;9.254;2022-12-18T14:51:19;17.73;;;11.47;;
10904;SDS011;5505;51.450;9.254;2022-12-18T14:54:13;17.30;;;10.70;;
10904;SDS011;5505;51.450;9.254;2022-12-18T14:57:03;20.83;;;12.50;;
10904;SDS011;5505;51.450;9.254;2022-12-18T14:59:51;8.87;;;5.43;;
10904;SDS011;5505;51.450;9.254;2022-12-18T15:02:39;11.23;;;7.20;;
10904;SDS011;5505;51.450;9.254;2022-12-18T15:05:26;11.43;;;6.67;;
10904;SDS011;5505;51.450;9.254;2022-12-18T15:08:27;11.93;;;8.57;;
10904;SDS011;5505;51.450;9.254;2022-12-18T15:11:27;10.30;;;7.07;;
10904;SDS011;5505;51.450;9.254;2022-12-18T15:17:25;12.70;;;7.37;;
10904;SDS011;5505;51.450;9.254;2022-12-18T15:20:13;7.50;;;5.60;;
10904;SDS011;5505;51.450;9.254;2022-12-18T15:23:00;12.77;;;7.00;;
10904;SDS011;5505;51.450;9.254;2022-12-18T15:25:49;13.10;;;7.50;;
10904;SDS011;5505;51.450;9.254;2022-12-18T15:28:45;11.80;;;6.93;;
10904;SDS011;5505;51.450;9.254;2022-12-18T15:31:34;9.63;;;6.80;;
10904;SDS011;5505;51.450;9.254;2022-12-18T15:34:21;8.80;;;6.00;;
10904;SDS011;5505;51.450;9.254;2022-12-18T15:37:09;8.23;;;5.47;;
10904;SDS011;5505;51.450;9.254;2022-12-18T15:39:55;9.50;;;6.83;;
10904;SDS011;5505;51.450;9.254;2022-12-18T15:42:43;9.77;;;6.33;;
10904;SDS011;5505;51.450;9.254;2022-12-18T15:45:49;10.43;;;6.70;;
10904;SDS011;5505;51.450;9.254;2022-12-18T15:48:38;12.37;;;6.47;;
10904;SDS011;5505;51.450;9.254;2022-12-18T15:51:27;9.83;;;6.13;;
10904;SDS011;5505;51.450;9.254;2022-12-18T15:54:15;10.30;;;7.33;;
10904;SDS011;5505;51.450;9.254;2022-12-18T15:57:23;13.10;;;7.70;;
10904;SDS011;5505;51.450;9.254;2022-12-18T16:00:12;12.93;;;7.93;;
10904;SDS011;5505;51.450;9.254;2022-12-18T16:02:59;13.23;;;8.60;;
10904;SDS011;5505;51.450;9.254;2022-12-18T16:05:46;12.63;;;8.07;;
10904;SDS011;5505;51.450;9.254;2022-12-18T16:08:33;13.30;;;7.63;;
10904;SDS011;5505;51.450;9.254;2022-12-18T16:11:21;12.43;;;7.63;;
10904;SDS011;5505;51.450;9.254;2022-12-18T16:14:24;10.40;;;7.30;;
10904;SDS011;5505;51.450;9.254;2022-12-18T16:17:13;13.07;;;8.03;;
10904;SDS011;5505;51.450;9.254;2022-12-18T16:20:00;17.43;;;9.57;;
10904;SDS011;5505;51.450;9.254;2022-12-18T16:22:47;16.33;;;9.40;;
10904;SDS011;5505;51.450;9.254;2022-12-18T16:25:35;24.77;;;10.17;;
10904;SDS011;5505;51.450;9.254;2022-12-18T16:28:21;12.63;;;8.50;;
10904;SDS011;5505;51.450;9.254;2022-12-18T16:31:08;13.00;;;8.00;;
10904;SDS011;5505;51.450;9.254;2022-12-18T16:34:13;13.60;;;7.93;;
10904;SDS011;5505;51.450;9.254;2022-12-18T16:37:04;11.50;;;8.10;;
10904;SDS011;5505;51.450;9.254;2022-12-18T16:39:51;15.17;;;9.97;;
10904;SDS011;5505;51.450;9.254;2022-12-18T16:42:39;14.43;;;9.23;;
10904;SDS011;5505;51.450;9.254;2022-12-18T16:45:27;12.40;;;8.87;;
10904;SDS011;5505;51.450;9.254;2022-12-18T16:48:17;12.87;;;8.03;;
10904;SDS011;5505;51.450;9.254;2022-12-18T16:51:06;14.57;;;8.63;;
10904;SDS011;5505;51.450;9.254;2022-12-18T16:53:53;13.87;;;8.87;;
10904;SDS011;5505;51.450;9.254;2022-12-18T16:56:39;13.10;;;8.83;;
10904;SDS011;5505;51.450;9.254;2022-12-18T16:59:27;13.63;;;8.90;;
10904;SDS011;5505;51.450;9.254;2022-12-18T17:02:14;13.50;;;8.70;;
10904;SDS011;5505;51.450;9.254;2022-12-18T17:05:04;12.67;;;7.83;;
10904;SDS011;5505;51.450;9.254;2022-12-18T17:07:52;14.87;;;9.70;;
10904;SDS011;5505;51.450;9.254;2022-12-18T17:10:39;12.13;;;7.20;;
10904;SDS011;5505;51.450;9.254;2022-12-18T17:13:26;14.03;;;9.13;;
10904;SDS011;5505;51.450;9.254;2022-12-18T17:16:12;15.43;;;9.63;;
10904;SDS011;5505;51.450;9.254;2022-12-18T17:19:01;13.47;;;9.27;;